sensor_id;sensor_type;location;lat;lon;timestamp;temperature;humidity
2993;DHT22;1506;48.932;9.478;2022-07-23T00:00:20;25.10;99.90
2993;DHT22;1506;48.932;9.478;2022-07-23T00:02:47;25.10;99.90
2993;DHT22;1506;48.932;9.478;2022-07-23T00:05:15;25.20;99.90
2993;DHT22;1506;48.932;9.478;2022-07-23T00:07:42;25.20;99.90
2993;DHT22;1506;48.932;9.478;2022-07-23T00:10:09;25.20;99.90
2993;DHT22;1506;48.932;9.478;2022-07-23T00:12:37;25.30;99.90
2993;DHT22;1506;48.932;9.478;2022-07-23T00:15:18;25.20;99.90
2993;DHT22;1506;48.932;9.478;2022-07-23T00:17:45;25.30;99.90
2993;DHT22;1506;48.932;9.478;2022-07-23T00:20:13;25.30;99.90
2993;DHT22;1506;48.932;9.478;2022-07-23T00:22:54;25.30;99.90
2993;DHT22;1506;48.932;9.478;2022-07-23T00:25:23;25.30;99.90
2993;DHT22;1506;48.932;9.478;2022-07-23T00:27:56;25.20;99.90
2993;DHT22;1506;48.932;9.478;2022-07-23T00:30:23;25.10;99.90
2993;DHT22;1506;48.932;9.478;2022-07-23T00:32:53;25.10;99.90
2993;DHT22;1506;48.932;9.478;2022-07-23T00:35:28;25.10;99.90
2993;DHT22;1506;48.932;9.478;2022-07-23T00:37:57;25.10;99.90
2993;DHT22;1506;48.932;9.478;2022-07-23T00:40:25;25.10;99.90
2993;DHT22;1506;48.932;9.478;2022-07-23T00:42:53;25.00;99.90
2993;DHT22;1506;48.932;9.478;2022-07-23T00:45:20;25.00;99.90
2993;DHT22;1506;48.932;9.478;2022-07-23T00:47:48;25.00;99.90
2993;DHT22;1506;48.932;9.478;2022-07-23T00:50:15;25.00;99.90
2993;DHT22;1506;48.932;9.478;2022-07-23T00:52:43;24.90;99.90
2993;DHT22;1506;48.932;9.478;2022-07-23T00:55:11;24.90;99.90
2993;DHT22;1506;48.932;9.478;2022-07-23T00:57:39;24.90;99.90
2993;DHT22;1506;48.932;9.478;2022-07-23T01:00:10;24.90;99.90
2993;DHT22;1506;48.932;9.478;2022-07-23T01:02:39;25.00;99.90
2993;DHT22;1506;48.932;9.478;2022-07-23T01:05:07;24.80;99.90
2993;DHT22;1506;48.932;9.478;2022-07-23T01:07:36;24.60;99.90
2993;DHT22;1506;48.932;9.478;2022-07-23T01:10:05;24.50;99.90
2993;DHT22;1506;48.932;9.478;2022-07-23T01:12:52;24.30;99.90
2993;DHT22;1506;48.932;9.478;2022-07-23T01:15:20;24.30;99.90
2993;DHT22;1506;48.932;9.478;2022-07-23T01:17:47;24.30;99.90
2993;DHT22;1506;48.932;9.478;2022-07-23T01:20:14;24.30;99.90
2993;DHT22;1506;48.932;9.478;2022-07-23T01:22:41;24.30;99.90
2993;DHT22;1506;48.932;9.478;2022-07-23T01:25:09;24.30;99.90
2993;DHT22;1506;48.932;9.478;2022-07-23T01:27:39;24.30;99.90
2993;DHT22;1506;48.932;9.478;2022-07-23T01:30:07;24.20;99.90
2993;DHT22;1506;48.932;9.478;2022-07-23T01:32:35;24.10;99.90
2993;DHT22;1506;48.932;9.478;2022-07-23T01:35:03;24.00;99.90
2993;DHT22;1506;48.932;9.478;2022-07-23T01:37:34;24.10;99.90
2993;DHT22;1506;48.932;9.478;2022-07-23T01:40:03;24.10;99.90
2993;DHT22;1506;48.932;9.478;2022-07-23T01:42:31;24.10;99.90
2993;DHT22;1506;48.932;9.478;2022-07-23T01:45:01;24.10;99.90
2993;DHT22;1506;48.932;9.478;2022-07-23T01:47:28;24.10;92.90
2993;DHT22;1506;48.932;9.478;2022-07-23T01:49:55;24.10;83.00
2993;DHT22;1506;48.932;9.478;2022-07-23T01:52:41;24.10;70.60
2993;DHT22;1506;48.932;9.478;2022-07-23T01:55:08;24.10;67.40
2993;DHT22;1506;48.932;9.478;2022-07-23T01:57:45;24.10;62.60
2993;DHT22;1506;48.932;9.478;2022-07-23T02:00:14;24.10;56.30
2993;DHT22;1506;48.932;9.478;2022-07-23T02:02:46;24.10;47.40
2993;DHT22;1506;48.932;9.478;2022-07-23T02:05:13;24.10;44.20
2993;DHT22;1506;48.932;9.478;2022-07-23T02:07:40;24.10;32.90
2993;DHT22;1506;48.932;9.478;2022-07-23T02:10:07;24.00;20.80
2993;DHT22;1506;48.932;9.478;2022-07-23T02:12:37;24.00;24.60
2993;DHT22;1506;48.932;9.478;2022-07-23T02:15:04;23.90;21.80
2993;DHT22;1506;48.932;9.478;2022-07-23T02:17:35;23.80;28.40
2993;DHT22;1506;48.932;9.478;2022-07-23T02:20:03;23.70;33.50
2993;DHT22;1506;48.932;9.478;2022-07-23T02:22:31;23.70;41.70
2993;DHT22;1506;48.932;9.478;2022-07-23T02:24:58;23.70;55.90
2993;DHT22;1506;48.932;9.478;2022-07-23T02:27:26;23.60;54.40
2993;DHT22;1506;48.932;9.478;2022-07-23T02:29:53;23.40;56.00
2993;DHT22;1506;48.932;9.478;2022-07-23T02:32:20;23.30;71.50
2993;DHT22;1506;48.932;9.478;2022-07-23T02:34:50;23.10;99.10
2993;DHT22;1506;48.932;9.478;2022-07-23T02:37:19;22.90;99.90
2993;DHT22;1506;48.932;9.478;2022-07-23T02:39:46;22.80;99.90
2993;DHT22;1506;48.932;9.478;2022-07-23T02:42:15;22.90;99.90
2993;DHT22;1506;48.932;9.478;2022-07-23T02:44:43;22.90;99.90
2993;DHT22;1506;48.932;9.478;2022-07-23T02:47:10;22.90;99.90
2993;DHT22;1506;48.932;9.478;2022-07-23T02:49:37;22.80;99.90
2993;DHT22;1506;48.932;9.478;2022-07-23T02:52:05;22.80;99.90
2993;DHT22;1506;48.932;9.478;2022-07-23T02:54:33;22.90;99.90
2993;DHT22;1506;48.932;9.478;2022-07-23T02:57:02;22.90;99.90
2993;DHT22;1506;48.932;9.478;2022-07-23T02:59:30;22.70;99.90
2993;DHT22;1506;48.932;9.478;2022-07-23T03:01:57;22.70;99.90
2993;DHT22;1506;48.932;9.478;2022-07-23T03:04:24;22.70;99.90
2993;DHT22;1506;48.932;9.478;2022-07-23T03:06:51;22.70;99.90
2993;DHT22;1506;48.932;9.478;2022-07-23T03:09:18;22.70;1.00
2993;DHT22;1506;48.932;9.478;2022-07-23T03:11:46;22.50;99.90
2993;DHT22;1506;48.932;9.478;2022-07-23T03:14:13;22.40;99.90
2993;DHT22;1506;48.932;9.478;2022-07-23T03:16:40;22.40;99.90
2993;DHT22;1506;48.932;9.478;2022-07-23T03:19:07;22.30;99.90
2993;DHT22;1506;48.932;9.478;2022-07-23T03:21:35;22.20;99.90
2993;DHT22;1506;48.932;9.478;2022-07-23T03:24:06;22.20;1.00
2993;DHT22;1506;48.932;9.478;2022-07-23T03:26:35;22.10;1.00
2993;DHT22;1506;48.932;9.478;2022-07-23T03:29:03;22.10;1.00
2993;DHT22;1506;48.932;9.478;2022-07-23T03:31:31;22.10;1.00
2993;DHT22;1506;48.932;9.478;2022-07-23T03:33:58;22.20;1.00
2993;DHT22;1506;48.932;9.478;2022-07-23T03:36:26;22.10;1.00
2993;DHT22;1506;48.932;9.478;2022-07-23T03:38:55;22.20;1.00
2993;DHT22;1506;48.932;9.478;2022-07-23T03:41:22;22.10;1.00
2993;DHT22;1506;48.932;9.478;2022-07-23T03:43:49;22.10;1.00
2993;DHT22;1506;48.932;9.478;2022-07-23T03:46:16;22.10;1.00
2993;DHT22;1506;48.932;9.478;2022-07-23T03:48:43;22.20;1.00
2993;DHT22;1506;48.932;9.478;2022-07-23T03:51:11;22.10;1.00
2993;DHT22;1506;48.932;9.478;2022-07-23T03:53:38;22.20;1.00
2993;DHT22;1506;48.932;9.478;2022-07-23T03:56:05;22.20;1.00
2993;DHT22;1506;48.932;9.478;2022-07-23T04:01:00;22.10;1.00
2993;DHT22;1506;48.932;9.478;2022-07-23T04:03:28;22.10;1.00
2993;DHT22;1506;48.932;9.478;2022-07-23T04:05:55;22.10;1.00
2993;DHT22;1506;48.932;9.478;2022-07-23T04:08:22;22.10;1.00
2993;DHT22;1506;48.932;9.478;2022-07-23T04:10:51;22.10;1.00
2993;DHT22;1506;48.932;9.478;2022-07-23T04:13:20;22.10;1.00
2993;DHT22;1506;48.932;9.478;2022-07-23T04:15:47;22.10;1.00
2993;DHT22;1506;48.932;9.478;2022-07-23T04:18:15;22.00;1.00
2993;DHT22;1506;48.932;9.478;2022-07-23T04:20:55;21.90;1.00
2993;DHT22;1506;48.932;9.478;2022-07-23T04:23:23;21.90;1.00
2993;DHT22;1506;48.932;9.478;2022-07-23T04:25:52;21.80;1.00
2993;DHT22;1506;48.932;9.478;2022-07-23T04:28:19;21.90;31.70
2993;DHT22;1506;48.932;9.478;2022-07-23T04:30:46;21.90;99.90
2993;DHT22;1506;48.932;9.478;2022-07-23T04:33:15;21.80;99.90
2993;DHT22;1506;48.932;9.478;2022-07-23T04:35:43;21.90;48.70
2993;DHT22;1506;48.932;9.478;2022-07-23T04:38:18;22.00;99.90
2993;DHT22;1506;48.932;9.478;2022-07-23T04:40:46;22.10;93.40
2993;DHT22;1506;48.932;9.478;2022-07-23T04:43:13;22.10;99.90
2993;DHT22;1506;48.932;9.478;2022-07-23T04:45:45;22.10;99.70
2993;DHT22;1506;48.932;9.478;2022-07-23T04:48:13;21.80;99.90
2993;DHT22;1506;48.932;9.478;2022-07-23T04:50:40;21.70;1.00
2993;DHT22;1506;48.932;9.478;2022-07-23T04:53:21;21.60;1.00
2993;DHT22;1506;48.932;9.478;2022-07-23T04:55:51;21.60;1.00
2993;DHT22;1506;48.932;9.478;2022-07-23T04:58:19;21.70;1.00
2993;DHT22;1506;48.932;9.478;2022-07-23T05:00:47;21.70;1.00
2993;DHT22;1506;48.932;9.478;2022-07-23T05:03:15;21.80;54.50
2993;DHT22;1506;48.932;9.478;2022-07-23T05:05:44;21.80;99.90
2993;DHT22;1506;48.932;9.478;2022-07-23T05:08:15;22.00;54.00
2993;DHT22;1506;48.932;9.478;2022-07-23T05:10:45;21.90;99.90
2993;DHT22;1506;48.932;9.478;2022-07-23T05:13:16;22.10;1.00
2993;DHT22;1506;48.932;9.478;2022-07-23T05:15:44;22.30;72.90
2993;DHT22;1506;48.932;9.478;2022-07-23T05:18:12;22.50;1.00
2993;DHT22;1506;48.932;9.478;2022-07-23T05:20:39;22.80;1.00
2993;DHT22;1506;48.932;9.478;2022-07-23T05:23:07;23.00;1.00
2993;DHT22;1506;48.932;9.478;2022-07-23T05:25:35;23.40;99.90
2993;DHT22;1506;48.932;9.478;2022-07-23T05:28:02;24.10;1.00
2993;DHT22;1506;48.932;9.478;2022-07-23T05:30:29;25.00;1.00
2993;DHT22;1506;48.932;9.478;2022-07-23T05:33:00;25.90;1.00
2993;DHT22;1506;48.932;9.478;2022-07-23T05:35:27;26.50;1.00
2993;DHT22;1506;48.932;9.478;2022-07-23T05:38:11;27.00;1.00
2993;DHT22;1506;48.932;9.478;2022-07-23T05:40:38;27.30;1.00
2993;DHT22;1506;48.932;9.478;2022-07-23T05:43:05;28.10;1.00
2993;DHT22;1506;48.932;9.478;2022-07-23T05:45:33;29.00;99.90
2993;DHT22;1506;48.932;9.478;2022-07-23T05:48:01;28.90;99.90
2993;DHT22;1506;48.932;9.478;2022-07-23T05:50:34;28.80;99.90
2993;DHT22;1506;48.932;9.478;2022-07-23T05:53:30;28.30;99.90
2993;DHT22;1506;48.932;9.478;2022-07-23T05:56:09;27.40;99.90
2993;DHT22;1506;48.932;9.478;2022-07-23T05:58:37;26.80;99.90
2993;DHT22;1506;48.932;9.478;2022-07-23T06:01:04;26.30;99.90
2993;DHT22;1506;48.932;9.478;2022-07-23T06:03:39;25.80;99.90
2993;DHT22;1506;48.932;9.478;2022-07-23T06:06:06;25.30;99.90
2993;DHT22;1506;48.932;9.478;2022-07-23T06:08:35;25.20;1.00
2993;DHT22;1506;48.932;9.478;2022-07-23T06:11:02;25.00;1.00
2993;DHT22;1506;48.932;9.478;2022-07-23T06:13:29;25.00;1.00
2993;DHT22;1506;48.932;9.478;2022-07-23T06:15:56;25.00;1.00
2993;DHT22;1506;48.932;9.478;2022-07-23T06:18:23;25.00;1.00
2993;DHT22;1506;48.932;9.478;2022-07-23T06:20:53;25.10;1.00
2993;DHT22;1506;48.932;9.478;2022-07-23T06:23:26;25.00;1.00
2993;DHT22;1506;48.932;9.478;2022-07-23T06:25:53;25.00;1.00
2993;DHT22;1506;48.932;9.478;2022-07-23T06:28:20;25.00;1.00
2993;DHT22;1506;48.932;9.478;2022-07-23T06:30:47;24.90;1.00
2993;DHT22;1506;48.932;9.478;2022-07-23T06:33:15;24.90;1.00
2993;DHT22;1506;48.932;9.478;2022-07-23T06:35:43;24.90;1.00
2993;DHT22;1506;48.932;9.478;2022-07-23T06:38:10;24.70;1.00
2993;DHT22;1506;48.932;9.478;2022-07-23T06:40:37;24.50;1.00
2993;DHT22;1506;48.932;9.478;2022-07-23T06:43:04;24.60;1.00
2993;DHT22;1506;48.932;9.478;2022-07-23T06:45:36;25.50;1.00
2993;DHT22;1506;48.932;9.478;2022-07-23T06:48:03;26.20;1.00
2993;DHT22;1506;48.932;9.478;2022-07-23T06:50:30;26.80;1.00
2993;DHT22;1506;48.932;9.478;2022-07-23T06:52:57;26.80;1.00
2993;DHT22;1506;48.932;9.478;2022-07-23T06:55:25;26.70;1.00
2993;DHT22;1506;48.932;9.478;2022-07-23T06:57:52;26.70;1.00
2993;DHT22;1506;48.932;9.478;2022-07-23T07:00:19;26.50;1.00
2993;DHT22;1506;48.932;9.478;2022-07-23T07:02:46;26.70;1.00
2993;DHT22;1506;48.932;9.478;2022-07-23T07:05:14;27.10;1.00
2993;DHT22;1506;48.932;9.478;2022-07-23T07:07:41;27.30;1.00
2993;DHT22;1506;48.932;9.478;2022-07-23T07:10:08;27.30;1.00
2993;DHT22;1506;48.932;9.478;2022-07-23T07:12:41;27.30;1.00
2993;DHT22;1506;48.932;9.478;2022-07-23T07:15:09;27.50;1.00
2993;DHT22;1506;48.932;9.478;2022-07-23T07:17:36;27.30;1.00
2993;DHT22;1506;48.932;9.478;2022-07-23T07:20:04;27.00;1.00
2993;DHT22;1506;48.932;9.478;2022-07-23T07:22:32;26.50;1.00
2993;DHT22;1506;48.932;9.478;2022-07-23T07:24:59;26.10;1.00
2993;DHT22;1506;48.932;9.478;2022-07-23T07:27:26;25.60;1.00
2993;DHT22;1506;48.932;9.478;2022-07-23T07:29:53;25.30;1.00
2993;DHT22;1506;48.932;9.478;2022-07-23T07:32:20;25.20;1.00
2993;DHT22;1506;48.932;9.478;2022-07-23T07:35:07;25.00;1.00
2993;DHT22;1506;48.932;9.478;2022-07-23T07:37:34;24.70;1.00
2993;DHT22;1506;48.932;9.478;2022-07-23T07:40:02;24.50;1.00
2993;DHT22;1506;48.932;9.478;2022-07-23T07:42:29;24.30;1.00
2993;DHT22;1506;48.932;9.478;2022-07-23T07:44:56;24.30;1.00
2993;DHT22;1506;48.932;9.478;2022-07-23T07:47:23;24.30;1.00
2993;DHT22;1506;48.932;9.478;2022-07-23T07:49:50;24.30;1.00
2993;DHT22;1506;48.932;9.478;2022-07-23T07:52:18;24.20;1.00
2993;DHT22;1506;48.932;9.478;2022-07-23T07:54:45;23.80;1.00
2993;DHT22;1506;48.932;9.478;2022-07-23T07:57:13;23.50;1.00
2993;DHT22;1506;48.932;9.478;2022-07-23T07:59:40;23.40;84.50
2993;DHT22;1506;48.932;9.478;2022-07-23T08:02:07;23.40;99.90
2993;DHT22;1506;48.932;9.478;2022-07-23T08:04:34;23.50;11.30
2993;DHT22;1506;48.932;9.478;2022-07-23T08:07:01;23.60;99.90
2993;DHT22;1506;48.932;9.478;2022-07-23T08:09:28;23.50;1.00
2993;DHT22;1506;48.932;9.478;2022-07-23T08:11:55;23.50;99.90
2993;DHT22;1506;48.932;9.478;2022-07-23T08:14:22;23.60;99.90
2993;DHT22;1506;48.932;9.478;2022-07-23T08:16:49;23.90;1.00
2993;DHT22;1506;48.932;9.478;2022-07-23T08:19:36;24.00;1.00
2993;DHT22;1506;48.932;9.478;2022-07-23T08:22:04;24.30;1.00
2993;DHT22;1506;48.932;9.478;2022-07-23T08:24:31;24.30;1.00
2993;DHT22;1506;48.932;9.478;2022-07-23T08:26:58;24.10;1.00
2993;DHT22;1506;48.932;9.478;2022-07-23T08:29:25;23.90;21.10
2993;DHT22;1506;48.932;9.478;2022-07-23T08:31:53;23.50;1.00
2993;DHT22;1506;48.932;9.478;2022-07-23T08:34:20;23.30;99.90
2993;DHT22;1506;48.932;9.478;2022-07-23T08:36:47;23.20;1.00
2993;DHT22;1506;48.932;9.478;2022-07-23T08:39:14;22.90;99.90
2993;DHT22;1506;48.932;9.478;2022-07-23T08:41:41;22.60;1.00
2993;DHT22;1506;48.932;9.478;2022-07-23T08:44:08;22.50;1.00
2993;DHT22;1506;48.932;9.478;2022-07-23T08:46:36;22.40;1.00
2993;DHT22;1506;48.932;9.478;2022-07-23T08:49:10;22.40;1.00
2993;DHT22;1506;48.932;9.478;2022-07-23T08:51:37;22.50;99.90
2993;DHT22;1506;48.932;9.478;2022-07-23T08:54:04;22.70;1.00
2993;DHT22;1506;48.932;9.478;2022-07-23T08:56:32;22.90;1.00
2993;DHT22;1506;48.932;9.478;2022-07-23T08:58:58;23.00;1.00
2993;DHT22;1506;48.932;9.478;2022-07-23T09:01:26;23.00;99.90
2993;DHT22;1506;48.932;9.478;2022-07-23T09:03:53;22.90;99.90
2993;DHT22;1506;48.932;9.478;2022-07-23T09:06:20;23.10;81.00
2993;DHT22;1506;48.932;9.478;2022-07-23T09:08:47;23.30;1.00
2993;DHT22;1506;48.932;9.478;2022-07-23T09:11:18;23.60;1.00
2993;DHT22;1506;48.932;9.478;2022-07-23T09:13:52;24.00;5.70
2993;DHT22;1506;48.932;9.478;2022-07-23T09:16:29;25.00;99.90
2993;DHT22;1506;48.932;9.478;2022-07-23T09:18:59;26.20;41.10
2993;DHT22;1506;48.932;9.478;2022-07-23T09:21:35;27.30;1.00
2993;DHT22;1506;48.932;9.478;2022-07-23T09:24:11;28.10;1.00
2993;DHT22;1506;48.932;9.478;2022-07-23T09:26:40;28.70;1.00
2993;DHT22;1506;48.932;9.478;2022-07-23T09:29:16;29.10;1.00
2993;DHT22;1506;48.932;9.478;2022-07-23T09:34:32;27.30;1.00
2993;DHT22;1506;48.932;9.478;2022-07-23T09:37:16;27.50;1.00
2993;DHT22;1506;48.932;9.478;2022-07-23T09:39:45;27.60;1.00
2993;DHT22;1506;48.932;9.478;2022-07-23T09:44:52;27.60;1.00
2993;DHT22;1506;48.932;9.478;2022-07-23T09:50:05;28.30;99.90
2993;DHT22;1506;48.932;9.478;2022-07-23T09:52:46;29.40;99.90
2993;DHT22;1506;48.932;9.478;2022-07-23T09:55:16;29.60;99.90
2993;DHT22;1506;48.932;9.478;2022-07-23T09:57:45;29.60;99.90
2993;DHT22;1506;48.932;9.478;2022-07-23T10:00:23;29.70;99.90
2993;DHT22;1506;48.932;9.478;2022-07-23T10:02:51;29.50;99.90
2993;DHT22;1506;48.932;9.478;2022-07-23T10:05:48;30.10;99.90
2993;DHT22;1506;48.932;9.478;2022-07-23T10:08:41;31.00;99.90
2993;DHT22;1506;48.932;9.478;2022-07-23T10:11:40;31.00;99.90
2993;DHT22;1506;48.932;9.478;2022-07-23T10:14:22;31.90;99.90
2993;DHT22;1506;48.932;9.478;2022-07-23T10:16:56;32.40;99.90
2993;DHT22;1506;48.932;9.478;2022-07-23T10:19:24;32.70;99.90
2993;DHT22;1506;48.932;9.478;2022-07-23T10:22:02;32.90;99.90
2993;DHT22;1506;48.932;9.478;2022-07-23T10:36:56;34.20;99.90
2993;DHT22;1506;48.932;9.478;2022-07-23T10:39:26;33.70;99.90
2993;DHT22;1506;48.932;9.478;2022-07-23T10:42:14;33.80;99.90
2993;DHT22;1506;48.932;9.478;2022-07-23T10:44:47;34.00;99.90
2993;DHT22;1506;48.932;9.478;2022-07-23T10:47:35;34.10;99.90
2993;DHT22;1506;48.932;9.478;2022-07-23T10:53:11;34.40;99.90
2993;DHT22;1506;48.932;9.478;2022-07-23T10:55:49;34.20;99.90
2993;DHT22;1506;48.932;9.478;2022-07-23T10:58:20;34.50;99.90
2993;DHT22;1506;48.932;9.478;2022-07-23T11:00:49;34.60;99.90
2993;DHT22;1506;48.932;9.478;2022-07-23T11:03:30;34.60;99.90
2993;DHT22;1506;48.932;9.478;2022-07-23T11:06:03;34.50;99.90
2993;DHT22;1506;48.932;9.478;2022-07-23T11:08:32;34.70;99.90
2993;DHT22;1506;48.932;9.478;2022-07-23T11:13:41;34.60;99.90
2993;DHT22;1506;48.932;9.478;2022-07-23T11:16:16;35.20;99.90
2993;DHT22;1506;48.932;9.478;2022-07-23T11:24:13;36.00;99.90
2993;DHT22;1506;48.932;9.478;2022-07-23T11:26:55;36.80;99.90
2993;DHT22;1506;48.932;9.478;2022-07-23T11:32:18;36.80;99.90
2993;DHT22;1506;48.932;9.478;2022-07-23T11:34:50;36.10;99.90
2993;DHT22;1506;48.932;9.478;2022-07-23T11:37:39;36.10;99.90
2993;DHT22;1506;48.932;9.478;2022-07-23T11:40:15;35.40;99.90
2993;DHT22;1506;48.932;9.478;2022-07-23T11:43:00;35.20;99.90
2993;DHT22;1506;48.932;9.478;2022-07-23T11:48:05;35.80;99.90
2993;DHT22;1506;48.932;9.478;2022-07-23T11:50:35;35.40;99.90
2993;DHT22;1506;48.932;9.478;2022-07-23T11:53:03;35.10;99.90
2993;DHT22;1506;48.932;9.478;2022-07-23T11:55:30;34.60;99.90
2993;DHT22;1506;48.932;9.478;2022-07-23T11:57:57;34.30;99.90
2993;DHT22;1506;48.932;9.478;2022-07-23T12:00:28;33.60;99.90
2993;DHT22;1506;48.932;9.478;2022-07-23T12:02:59;33.20;99.90
2993;DHT22;1506;48.932;9.478;2022-07-23T12:05:31;32.80;99.90
2993;DHT22;1506;48.932;9.478;2022-07-23T12:08:01;32.70;99.90
2993;DHT22;1506;48.932;9.478;2022-07-23T12:10:38;32.70;99.90
2993;DHT22;1506;48.932;9.478;2022-07-23T12:13:19;32.60;99.90
2993;DHT22;1506;48.932;9.478;2022-07-23T12:15:49;32.90;99.90
2993;DHT22;1506;48.932;9.478;2022-07-23T12:18:21;33.00;99.90
2993;DHT22;1506;48.932;9.478;2022-07-23T12:20:54;33.20;99.90
2993;DHT22;1506;48.932;9.478;2022-07-23T12:23:24;33.90;99.90
2993;DHT22;1506;48.932;9.478;2022-07-23T12:25:53;34.20;99.90
2993;DHT22;1506;48.932;9.478;2022-07-23T12:28:31;34.30;99.90
2993;DHT22;1506;48.932;9.478;2022-07-23T12:30:59;34.30;99.90
2993;DHT22;1506;48.932;9.478;2022-07-23T12:33:36;34.00;99.90
2993;DHT22;1506;48.932;9.478;2022-07-23T12:36:07;34.00;99.90
2993;DHT22;1506;48.932;9.478;2022-07-23T12:41:07;33.60;99.90
2993;DHT22;1506;48.932;9.478;2022-07-23T12:43:44;33.20;99.90
2993;DHT22;1506;48.932;9.478;2022-07-23T12:46:16;33.90;99.90
2993;DHT22;1506;48.932;9.478;2022-07-23T12:51:25;35.10;99.90
2993;DHT22;1506;48.932;9.478;2022-07-23T12:53:58;34.80;99.90
2993;DHT22;1506;48.932;9.478;2022-07-23T12:56:33;35.10;99.90
2993;DHT22;1506;48.932;9.478;2022-07-23T12:59:07;35.50;99.90
2993;DHT22;1506;48.932;9.478;2022-07-23T13:01:45;35.60;99.90
2993;DHT22;1506;48.932;9.478;2022-07-23T13:04:22;35.30;99.90
2993;DHT22;1506;48.932;9.478;2022-07-23T13:06:55;34.50;99.90
2993;DHT22;1506;48.932;9.478;2022-07-23T13:09:32;33.90;99.90
2993;DHT22;1506;48.932;9.478;2022-07-23T13:12:08;33.70;99.90
2993;DHT22;1506;48.932;9.478;2022-07-23T13:14:37;33.50;99.90
2993;DHT22;1506;48.932;9.478;2022-07-23T13:17:05;33.20;99.90
2993;DHT22;1506;48.932;9.478;2022-07-23T13:19:33;32.80;99.90
2993;DHT22;1506;48.932;9.478;2022-07-23T13:22:01;32.80;99.90
2993;DHT22;1506;48.932;9.478;2022-07-23T13:24:35;32.50;99.90
2993;DHT22;1506;48.932;9.478;2022-07-23T13:27:06;32.50;99.90
2993;DHT22;1506;48.932;9.478;2022-07-23T13:29:37;32.50;99.90
2993;DHT22;1506;48.932;9.478;2022-07-23T13:32:04;32.50;99.90
2993;DHT22;1506;48.932;9.478;2022-07-23T13:34:39;32.50;99.90
2993;DHT22;1506;48.932;9.478;2022-07-23T13:37:08;32.30;99.90
2993;DHT22;1506;48.932;9.478;2022-07-23T13:39:35;32.10;99.90
2993;DHT22;1506;48.932;9.478;2022-07-23T13:42:05;31.70;99.90
2993;DHT22;1506;48.932;9.478;2022-07-23T13:44:34;31.60;99.90
2993;DHT22;1506;48.932;9.478;2022-07-23T13:47:02;31.70;99.90
2993;DHT22;1506;48.932;9.478;2022-07-23T13:49:30;31.60;99.90
2993;DHT22;1506;48.932;9.478;2022-07-23T13:51:57;31.60;99.90
2993;DHT22;1506;48.932;9.478;2022-07-23T13:54:25;31.50;99.90
2993;DHT22;1506;48.932;9.478;2022-07-23T13:56:54;31.50;99.90
2993;DHT22;1506;48.932;9.478;2022-07-23T13:59:23;31.40;99.90
2993;DHT22;1506;48.932;9.478;2022-07-23T14:01:53;30.90;99.90
2993;DHT22;1506;48.932;9.478;2022-07-23T14:04:40;30.50;99.90
2993;DHT22;1506;48.932;9.478;2022-07-23T14:07:08;30.40;99.90
2993;DHT22;1506;48.932;9.478;2022-07-23T14:09:36;30.50;99.90
2993;DHT22;1506;48.932;9.478;2022-07-23T14:12:04;30.50;99.90
2993;DHT22;1506;48.932;9.478;2022-07-23T14:14:32;30.20;99.90
2993;DHT22;1506;48.932;9.478;2022-07-23T14:17:04;30.10;99.90
2993;DHT22;1506;48.932;9.478;2022-07-23T14:19:32;30.20;99.90
2993;DHT22;1506;48.932;9.478;2022-07-23T14:22:00;30.20;99.90
2993;DHT22;1506;48.932;9.478;2022-07-23T14:24:29;30.20;99.90
2993;DHT22;1506;48.932;9.478;2022-07-23T14:27:01;30.20;99.90
2993;DHT22;1506;48.932;9.478;2022-07-23T14:29:29;30.20;99.90
2993;DHT22;1506;48.932;9.478;2022-07-23T14:31:57;30.20;99.90
2993;DHT22;1506;48.932;9.478;2022-07-23T14:34:25;30.30;99.90
2993;DHT22;1506;48.932;9.478;2022-07-23T14:36:54;30.40;99.90
2993;DHT22;1506;48.932;9.478;2022-07-23T14:39:21;30.60;99.90
2993;DHT22;1506;48.932;9.478;2022-07-23T14:41:48;30.50;99.90
2993;DHT22;1506;48.932;9.478;2022-07-23T14:44:15;30.50;99.90
2993;DHT22;1506;48.932;9.478;2022-07-23T14:46:42;30.50;99.90
2993;DHT22;1506;48.932;9.478;2022-07-23T14:49:09;30.40;99.90
2993;DHT22;1506;48.932;9.478;2022-07-23T14:51:37;30.50;99.90
2993;DHT22;1506;48.932;9.478;2022-07-23T14:54:04;30.50;99.90
2993;DHT22;1506;48.932;9.478;2022-07-23T14:56:32;30.70;99.90
2993;DHT22;1506;48.932;9.478;2022-07-23T14:59:01;30.60;99.90
2993;DHT22;1506;48.932;9.478;2022-07-23T15:01:31;30.60;99.90
2993;DHT22;1506;48.932;9.478;2022-07-23T15:04:00;30.50;99.90
2993;DHT22;1506;48.932;9.478;2022-07-23T15:06:48;30.40;99.90
2993;DHT22;1506;48.932;9.478;2022-07-23T15:09:15;30.20;99.90
2993;DHT22;1506;48.932;9.478;2022-07-23T15:11:42;30.20;99.90
2993;DHT22;1506;48.932;9.478;2022-07-23T15:14:10;30.20;99.90
2993;DHT22;1506;48.932;9.478;2022-07-23T15:16:50;30.20;99.90
2993;DHT22;1506;48.932;9.478;2022-07-23T15:19:18;30.40;99.90
2993;DHT22;1506;48.932;9.478;2022-07-23T15:21:45;30.50;99.90
2993;DHT22;1506;48.932;9.478;2022-07-23T15:24:15;30.40;99.90
2993;DHT22;1506;48.932;9.478;2022-07-23T15:26:42;30.30;99.90
2993;DHT22;1506;48.932;9.478;2022-07-23T15:29:09;30.30;99.90
2993;DHT22;1506;48.932;9.478;2022-07-23T15:31:36;30.40;99.90
2993;DHT22;1506;48.932;9.478;2022-07-23T15:34:03;30.40;99.90
2993;DHT22;1506;48.932;9.478;2022-07-23T15:36:33;30.30;99.90
2993;DHT22;1506;48.932;9.478;2022-07-23T15:39:02;30.20;99.90
2993;DHT22;1506;48.932;9.478;2022-07-23T15:41:31;30.20;99.90
2993;DHT22;1506;48.932;9.478;2022-07-23T15:43:59;30.10;99.90
2993;DHT22;1506;48.932;9.478;2022-07-23T15:46:46;30.20;99.90
2993;DHT22;1506;48.932;9.478;2022-07-23T15:49:14;30.20;99.90
2993;DHT22;1506;48.932;9.478;2022-07-23T15:51:45;30.20;99.90
2993;DHT22;1506;48.932;9.478;2022-07-23T15:54:13;30.10;99.90
2993;DHT22;1506;48.932;9.478;2022-07-23T15:56:42;30.00;99.90
2993;DHT22;1506;48.932;9.478;2022-07-23T15:59:09;29.90;99.90
2993;DHT22;1506;48.932;9.478;2022-07-23T16:01:37;29.90;99.90
2993;DHT22;1506;48.932;9.478;2022-07-23T16:04:04;29.70;99.90
2993;DHT22;1506;48.932;9.478;2022-07-23T16:06:33;29.90;99.90
2993;DHT22;1506;48.932;9.478;2022-07-23T16:09:00;30.00;99.90
2993;DHT22;1506;48.932;9.478;2022-07-23T16:11:31;30.10;99.90
2993;DHT22;1506;48.932;9.478;2022-07-23T16:13:58;30.20;99.90
2993;DHT22;1506;48.932;9.478;2022-07-23T16:16:26;30.20;99.90
2993;DHT22;1506;48.932;9.478;2022-07-23T16:18:54;30.10;99.90
2993;DHT22;1506;48.932;9.478;2022-07-23T16:21:23;30.00;99.90
2993;DHT22;1506;48.932;9.478;2022-07-23T16:23:51;30.00;99.90
2993;DHT22;1506;48.932;9.478;2022-07-23T16:26:18;30.00;99.90
2993;DHT22;1506;48.932;9.478;2022-07-23T16:28:47;29.90;99.90
2993;DHT22;1506;48.932;9.478;2022-07-23T16:31:14;29.90;99.90
2993;DHT22;1506;48.932;9.478;2022-07-23T16:33:42;29.80;99.90
2993;DHT22;1506;48.932;9.478;2022-07-23T16:36:09;29.70;99.90
2993;DHT22;1506;48.932;9.478;2022-07-23T16:38:37;29.50;99.90
2993;DHT22;1506;48.932;9.478;2022-07-23T16:41:05;29.20;99.90
2993;DHT22;1506;48.932;9.478;2022-07-23T16:43:33;29.10;99.90
2993;DHT22;1506;48.932;9.478;2022-07-23T16:46:00;28.90;99.90
2993;DHT22;1506;48.932;9.478;2022-07-23T16:48:28;28.90;99.90
2993;DHT22;1506;48.932;9.478;2022-07-23T16:50:55;28.90;99.90
2993;DHT22;1506;48.932;9.478;2022-07-23T16:53:22;28.90;99.90
2993;DHT22;1506;48.932;9.478;2022-07-23T16:55:49;29.00;99.90
2993;DHT22;1506;48.932;9.478;2022-07-23T16:58:16;28.90;99.90
2993;DHT22;1506;48.932;9.478;2022-07-23T17:00:43;28.90;99.90
2993;DHT22;1506;48.932;9.478;2022-07-23T17:03:10;28.90;99.90
2993;DHT22;1506;48.932;9.478;2022-07-23T17:05:37;29.00;99.90
2993;DHT22;1506;48.932;9.478;2022-07-23T17:08:05;28.90;99.90